sensor_id;sensor_type;location;lat;lon;timestamp;temperature;humidity
64468;DHT22;50853;46.836;16.820;2022-12-29T05:35:32;24.40;61.30
64468;DHT22;50853;46.836;16.820;2022-12-29T05:37:58;24.40;61.70
64468;DHT22;50853;46.836;16.820;2022-12-29T05:40:23;24.50;61.30
64468;DHT22;50853;46.836;16.820;2022-12-29T05:42:49;24.50;60.70
64468;DHT22;50853;46.836;16.820;2022-12-29T05:45:15;24.60;60.10
64468;DHT22;50853;46.836;16.820;2022-12-29T05:47:41;24.70;59.40
64468;DHT22;50853;46.836;16.820;2022-12-29T05:50:07;24.90;58.80
64468;DHT22;50853;46.836;16.820;2022-12-29T05:52:33;24.90;57.80
64468;DHT22;50853;46.836;16.820;2022-12-29T05:54:59;25.00;57.60
64468;DHT22;50853;46.836;16.820;2022-12-29T05:57:24;25.10;57.40
64468;DHT22;50853;46.836;16.820;2022-12-29T05:59:50;25.30;57.00
64468;DHT22;50853;46.836;16.820;2022-12-29T06:02:17;25.40;58.10
64468;DHT22;50853;46.836;16.820;2022-12-29T06:04:43;25.50;57.00
64468;DHT22;50853;46.836;16.820;2022-12-29T06:07:08;25.60;57.20
64468;DHT22;50853;46.836;16.820;2022-12-29T06:09:34;25.70;56.20
64468;DHT22;50853;46.836;16.820;2022-12-29T06:12:00;25.70;57.40
64468;DHT22;50853;46.836;16.820;2022-12-29T06:14:26;25.70;56.80
64468;DHT22;50853;46.836;16.820;2022-12-29T06:16:51;25.80;56.70
64468;DHT22;50853;46.836;16.820;2022-12-29T06:19:17;25.80;56.00
64468;DHT22;50853;46.836;16.820;2022-12-29T06:21:43;25.90;55.40
64468;DHT22;50853;46.836;16.820;2022-12-29T06:24:09;25.90;54.60
64468;DHT22;50853;46.836;16.820;2022-12-29T06:26:36;25.90;53.50
64468;DHT22;50853;46.836;16.820;2022-12-29T06:29:02;25.90;54.00
64468;DHT22;50853;46.836;16.820;2022-12-29T06:31:28;25.90;53.10
64468;DHT22;50853;46.836;16.820;2022-12-29T06:33:54;25.90;51.60
64468;DHT22;50853;46.836;16.820;2022-12-29T06:36:19;25.80;51.40
64468;DHT22;50853;46.836;16.820;2022-12-29T06:38:45;25.90;51.30
64468;DHT22;50853;46.836;16.820;2022-12-29T06:41:11;25.80;50.50
64468;DHT22;50853;46.836;16.820;2022-12-29T06:43:37;25.70;49.90
64468;DHT22;50853;46.836;16.820;2022-12-29T06:46:04;25.70;48.80
64468;DHT22;50853;46.836;16.820;2022-12-29T06:48:30;25.80;50.20
64468;DHT22;50853;46.836;16.820;2022-12-29T06:50:55;25.70;49.50
64468;DHT22;50853;46.836;16.820;2022-12-29T06:53:21;25.70;47.30
64468;DHT22;50853;46.836;16.820;2022-12-29T06:55:47;25.60;46.20
64468;DHT22;50853;46.836;16.820;2022-12-29T06:58:13;25.40;44.50
64468;DHT22;50853;46.836;16.820;2022-12-29T07:00:39;25.40;43.50
64468;DHT22;50853;46.836;16.820;2022-12-29T07:03:05;25.40;42.50
64468;DHT22;50853;46.836;16.820;2022-12-29T07:05:30;25.30;41.70
64468;DHT22;50853;46.836;16.820;2022-12-29T07:07:58;25.30;41.00
64468;DHT22;50853;46.836;16.820;2022-12-29T07:10:24;25.40;40.00
64468;DHT22;50853;46.836;16.820;2022-12-29T07:12:50;25.30;39.20
64468;DHT22;50853;46.836;16.820;2022-12-29T07:15:16;25.30;38.90
64468;DHT22;50853;46.836;16.820;2022-12-29T07:17:42;25.30;38.40
64468;DHT22;50853;46.836;16.820;2022-12-29T07:20:08;25.30;37.60
64468;DHT22;50853;46.836;16.820;2022-12-29T07:22:35;25.30;37.40
64468;DHT22;50853;46.836;16.820;2022-12-29T07:25:01;25.20;36.90
64468;DHT22;50853;46.836;16.820;2022-12-29T07:27:27;25.20;36.50
64468;DHT22;50853;46.836;16.820;2022-12-29T07:29:53;25.20;36.50
64468;DHT22;50853;46.836;16.820;2022-12-29T07:32:19;25.20;36.00
64468;DHT22;50853;46.836;16.820;2022-12-29T07:34:45;25.10;35.60
64468;DHT22;50853;46.836;16.820;2022-12-29T07:37:14;25.10;35.50
64468;DHT22;50853;46.836;16.820;2022-12-29T07:39:40;25.10;35.30
64468;DHT22;50853;46.836;16.820;2022-12-29T07:42:06;25.10;35.10
64468;DHT22;50853;46.836;16.820;2022-12-29T07:44:32;25.10;34.90
64468;DHT22;50853;46.836;16.820;2022-12-29T07:46:58;25.00;34.70
64468;DHT22;50853;46.836;16.820;2022-12-29T07:49:24;25.10;34.50
64468;DHT22;50853;46.836;16.820;2022-12-29T07:51:49;25.00;34.30
64468;DHT22;50853;46.836;16.820;2022-12-29T07:54:15;25.00;34.30
64468;DHT22;50853;46.836;16.820;2022-12-29T07:56:44;25.00;34.00
64468;DHT22;50853;46.836;16.820;2022-12-29T07:59:10;25.00;34.20
64468;DHT22;50853;46.836;16.820;2022-12-29T08:01:37;24.90;34.10
64468;DHT22;50853;46.836;16.820;2022-12-29T08:04:04;24.90;34.00
64468;DHT22;50853;46.836;16.820;2022-12-29T08:06:30;24.80;33.80
64468;DHT22;50853;46.836;16.820;2022-12-29T08:08:56;24.80;33.70
64468;DHT22;50853;46.836;16.820;2022-12-29T08:11:23;24.80;33.50
64468;DHT22;50853;46.836;16.820;2022-12-29T08:13:49;24.70;33.60
64468;DHT22;50853;46.836;16.820;2022-12-29T08:16:15;24.70;33.60
64468;DHT22;50853;46.836;16.820;2022-12-29T08:18:42;24.70;33.60
64468;DHT22;50853;46.836;16.820;2022-12-29T08:21:14;24.60;33.60
64468;DHT22;50853;46.836;16.820;2022-12-29T08:23:40;24.60;33.60
64468;DHT22;50853;46.836;16.820;2022-12-29T08:26:06;24.70;34.40
64468;DHT22;50853;46.836;16.820;2022-12-29T08:28:32;24.80;35.20
64468;DHT22;50853;46.836;16.820;2022-12-29T08:31:00;24.90;35.50
64468;DHT22;50853;46.836;16.820;2022-12-29T08:33:26;25.00;35.70
64468;DHT22;50853;46.836;16.820;2022-12-29T08:35:57;24.90;35.50
64468;DHT22;50853;46.836;16.820;2022-12-29T08:38:24;24.90;35.60
64468;DHT22;50853;46.836;16.820;2022-12-29T08:40:51;24.90;35.70
64468;DHT22;50853;46.836;16.820;2022-12-29T08:43:17;24.80;36.30
64468;DHT22;50853;46.836;16.820;2022-12-29T08:45:43;24.90;36.20
64468;DHT22;50853;46.836;16.820;2022-12-29T08:48:08;24.90;36.80
64468;DHT22;50853;46.836;16.820;2022-12-29T08:50:34;24.90;37.40
64468;DHT22;50853;46.836;16.820;2022-12-29T08:53:00;24.90;37.40
64468;DHT22;50853;46.836;16.820;2022-12-29T08:55:26;25.00;38.00
64468;DHT22;50853;46.836;16.820;2022-12-29T08:57:51;25.00;37.50
64468;DHT22;50853;46.836;16.820;2022-12-29T09:00:18;24.90;37.70
64468;DHT22;50853;46.836;16.820;2022-12-29T09:02:44;24.90;38.40
64468;DHT22;50853;46.836;16.820;2022-12-29T09:05:10;24.80;38.40
64468;DHT22;50853;46.836;16.820;2022-12-29T09:07:35;24.80;37.90
64468;DHT22;50853;46.836;16.820;2022-12-29T09:10:02;24.90;38.00
64468;DHT22;50853;46.836;16.820;2022-12-29T09:12:28;24.90;38.30
64468;DHT22;50853;46.836;16.820;2022-12-29T09:14:53;24.80;38.50
64468;DHT22;50853;46.836;16.820;2022-12-29T09:17:19;24.80;38.70
64468;DHT22;50853;46.836;16.820;2022-12-29T09:20:04;24.80;38.70
64468;DHT22;50853;46.836;16.820;2022-12-29T09:22:30;24.70;39.00
64468;DHT22;50853;46.836;16.820;2022-12-29T09:24:55;24.70;39.30
64468;DHT22;50853;46.836;16.820;2022-12-29T09:27:21;24.80;39.40
64468;DHT22;50853;46.836;16.820;2022-12-29T09:29:47;24.80;39.10
64468;DHT22;50853;46.836;16.820;2022-12-29T09:32:13;24.80;40.00
64468;DHT22;50853;46.836;16.820;2022-12-29T09:34:38;24.80;39.40
64468;DHT22;50853;46.836;16.820;2022-12-29T09:37:04;24.70;38.10
64468;DHT22;50853;46.836;16.820;2022-12-29T09:39:30;24.60;38.50
64468;DHT22;50853;46.836;16.820;2022-12-29T09:42:11;24.60;38.60
64468;DHT22;50853;46.836;16.820;2022-12-29T09:47:29;24.70;38.70
64468;DHT22;50853;46.836;16.820;2022-12-29T09:52:48;24.80;38.50
64468;DHT22;50853;46.836;16.820;2022-12-29T09:55:25;24.80;39.60
64468;DHT22;50853;46.836;16.820;2022-12-29T10:00:32;24.80;37.20
64468;DHT22;50853;46.836;16.820;2022-12-29T10:03:13;24.80;38.60
64468;DHT22;50853;46.836;16.820;2022-12-29T10:09:16;24.90;38.50
64468;DHT22;50853;46.836;16.820;2022-12-29T10:25:43;25.00;40.40
64468;DHT22;50853;46.836;16.820;2022-12-29T10:30:43;25.00;38.10
64468;DHT22;50853;46.836;16.820;2022-12-29T10:33:22;25.00;38.50
64468;DHT22;50853;46.836;16.820;2022-12-29T10:35:50;25.10;41.40
64468;DHT22;50853;46.836;16.820;2022-12-29T10:38:25;25.00;37.70
64468;DHT22;50853;46.836;16.820;2022-12-29T10:43:53;24.90;38.00
64468;DHT22;50853;46.836;16.820;2022-12-29T10:46:33;25.00;38.60
64468;DHT22;50853;46.836;16.820;2022-12-29T10:49:00;25.10;39.20
64468;DHT22;50853;46.836;16.820;2022-12-29T10:51:33;25.20;38.70
64468;DHT22;50853;46.836;16.820;2022-12-29T10:54:11;25.20;38.90
64468;DHT22;50853;46.836;16.820;2022-12-29T10:56:51;25.20;38.80
64468;DHT22;50853;46.836;16.820;2022-12-29T10:59:26;25.20;39.30
64468;DHT22;50853;46.836;16.820;2022-12-29T11:07:12;25.30;39.60
64468;DHT22;50853;46.836;16.820;2022-12-29T11:09:39;25.30;40.00
64468;DHT22;50853;46.836;16.820;2022-12-29T11:12:29;25.40;40.00
64468;DHT22;50853;46.836;16.820;2022-12-29T11:18:07;25.30;40.60
64468;DHT22;50853;46.836;16.820;2022-12-29T11:20:42;25.40;41.10
64468;DHT22;50853;46.836;16.820;2022-12-29T11:24:01;25.30;42.00
64468;DHT22;50853;46.836;16.820;2022-12-29T11:26:22;25.30;42.30
64468;DHT22;50853;46.836;16.820;2022-12-29T11:32:05;25.20;43.30
64468;DHT22;50853;46.836;16.820;2022-12-29T11:34:35;25.20;43.30
64468;DHT22;50853;46.836;16.820;2022-12-29T11:37:10;25.20;43.40
64468;DHT22;50853;46.836;16.820;2022-12-29T11:39:49;25.20;43.10
64468;DHT22;50853;46.836;16.820;2022-12-29T11:42:18;25.30;43.40
64468;DHT22;50853;46.836;16.820;2022-12-29T11:44:48;25.20;43.10
64468;DHT22;50853;46.836;16.820;2022-12-29T11:47:41;25.30;43.60
64468;DHT22;50853;46.836;16.820;2022-12-29T11:50:15;25.30;42.90
64468;DHT22;50853;46.836;16.820;2022-12-29T11:52:42;25.30;43.40
64468;DHT22;50853;46.836;16.820;2022-12-29T11:55:19;25.40;43.70
64468;DHT22;50853;46.836;16.820;2022-12-29T11:57:46;25.50;43.30
64468;DHT22;50853;46.836;16.820;2022-12-29T12:00:16;25.50;42.70
64468;DHT22;50853;46.836;16.820;2022-12-29T12:02:53;25.50;42.80
64468;DHT22;50853;46.836;16.820;2022-12-29T12:08:27;25.50;42.80
64468;DHT22;50853;46.836;16.820;2022-12-29T12:11:22;25.60;42.60
64468;DHT22;50853;46.836;16.820;2022-12-29T12:14:09;25.60;42.60
64468;DHT22;50853;46.836;16.820;2022-12-29T12:16:43;25.60;42.60
64468;DHT22;50853;46.836;16.820;2022-12-29T12:22:38;25.60;42.30
64468;DHT22;50853;46.836;16.820;2022-12-29T12:28:05;25.70;42.30
64468;DHT22;50853;46.836;16.820;2022-12-29T12:30:43;25.70;42.40
64468;DHT22;50853;46.836;16.820;2022-12-29T12:33:24;25.60;42.20
64468;DHT22;50853;46.836;16.820;2022-12-29T12:57:40;25.80;42.20
64468;DHT22;50853;46.836;16.820;2022-12-29T13:00:16;25.70;42.20
64468;DHT22;50853;46.836;16.820;2022-12-29T13:14:11;25.70;41.80
64468;DHT22;50853;46.836;16.820;2022-12-29T13:22:23;25.70;42.20
64468;DHT22;50853;46.836;16.820;2022-12-29T13:25:34;25.70;41.90
64468;DHT22;50853;46.836;16.820;2022-12-29T13:41:51;25.90;43.70
64468;DHT22;50853;46.836;16.820;2022-12-29T13:44:22;25.90;43.50
64468;DHT22;50853;46.836;16.820;2022-12-29T13:46:49;25.90;43.10
64468;DHT22;50853;46.836;16.820;2022-12-29T13:49:20;25.90;41.70
64468;DHT22;50853;46.836;16.820;2022-12-29T13:52:12;25.80;42.90
64468;DHT22;50853;46.836;16.820;2022-12-29T13:57:39;25.90;41.20
64468;DHT22;50853;46.836;16.820;2022-12-29T14:00:19;25.90;41.50
64468;DHT22;50853;46.836;16.820;2022-12-29T14:07:47;26.00;43.40
64468;DHT22;50853;46.836;16.820;2022-12-29T14:10:34;26.00;43.40
64468;DHT22;50853;46.836;16.820;2022-12-29T14:13:27;26.00;41.90
64468;DHT22;50853;46.836;16.820;2022-12-29T14:15:56;26.00;41.50
64468;DHT22;50853;46.836;16.820;2022-12-29T14:18:34;25.90;43.60
64468;DHT22;50853;46.836;16.820;2022-12-29T14:21:21;26.00;42.50
64468;DHT22;50853;46.836;16.820;2022-12-29T14:23:51;25.90;42.10
64468;DHT22;50853;46.836;16.820;2022-12-29T14:30:00;25.90;45.00
64468;DHT22;50853;46.836;16.820;2022-12-29T14:32:01;25.90;45.20
64468;DHT22;50853;46.836;16.820;2022-12-29T14:34:29;25.90;43.50
64468;DHT22;50853;46.836;16.820;2022-12-29T14:37:00;25.80;43.50
64468;DHT22;50853;46.836;16.820;2022-12-29T14:44:30;25.90;44.10
64468;DHT22;50853;46.836;16.820;2022-12-29T14:47:37;25.90;46.00
64468;DHT22;50853;46.836;16.820;2022-12-29T14:53:02;26.00;45.10
64468;DHT22;50853;46.836;16.820;2022-12-29T14:55:43;26.00;44.60
64468;DHT22;50853;46.836;16.820;2022-12-29T15:00:50;25.80;46.40
64468;DHT22;50853;46.836;16.820;2022-12-29T15:03:21;25.80;44.90
64468;DHT22;50853;46.836;16.820;2022-12-29T15:05:54;25.70;45.30
64468;DHT22;50853;46.836;16.820;2022-12-29T15:08:24;25.70;45.50
64468;DHT22;50853;46.836;16.820;2022-12-29T15:11:13;25.70;45.30
64468;DHT22;50853;46.836;16.820;2022-12-29T15:13:42;25.70;44.80
64468;DHT22;50853;46.836;16.820;2022-12-29T15:16:31;25.70;45.10
64468;DHT22;50853;46.836;16.820;2022-12-29T15:18:58;25.70;45.00
64468;DHT22;50853;46.836;16.820;2022-12-29T15:21:35;25.80;45.30
64468;DHT22;50853;46.836;16.820;2022-12-29T15:24:04;25.70;44.80
64468;DHT22;50853;46.836;16.820;2022-12-29T15:26:46;25.70;44.80
64468;DHT22;50853;46.836;16.820;2022-12-29T15:29:32;25.60;44.70
64468;DHT22;50853;46.836;16.820;2022-12-29T15:32:00;25.60;45.60
64468;DHT22;50853;46.836;16.820;2022-12-29T15:34:30;25.60;44.50
64468;DHT22;50853;46.836;16.820;2022-12-29T15:36:56;25.60;44.70
64468;DHT22;50853;46.836;16.820;2022-12-29T15:39:29;25.60;44.80
64468;DHT22;50853;46.836;16.820;2022-12-29T15:42:02;25.70;44.70
64468;DHT22;50853;46.836;16.820;2022-12-29T15:44:31;25.60;44.70
64468;DHT22;50853;46.836;16.820;2022-12-29T15:49:38;25.60;43.60
64468;DHT22;50853;46.836;16.820;2022-12-29T15:52:08;25.50;43.40
64468;DHT22;50853;46.836;16.820;2022-12-29T15:54:34;25.50;43.40
64468;DHT22;50853;46.836;16.820;2022-12-29T15:57:01;25.50;42.80
64468;DHT22;50853;46.836;16.820;2022-12-29T15:59:34;25.50;42.80
64468;DHT22;50853;46.836;16.820;2022-12-29T16:02:09;25.50;42.70
64468;DHT22;50853;46.836;16.820;2022-12-29T16:04:35;25.50;42.60
64468;DHT22;50853;46.836;16.820;2022-12-29T16:07:03;25.50;42.50
64468;DHT22;50853;46.836;16.820;2022-12-29T16:09:34;25.50;42.20
64468;DHT22;50853;46.836;16.820;2022-12-29T16:12:23;25.50;42.10
64468;DHT22;50853;46.836;16.820;2022-12-29T16:14:59;25.60;42.40
64468;DHT22;50853;46.836;16.820;2022-12-29T16:17:29;25.70;42.20
64468;DHT22;50853;46.836;16.820;2022-12-29T16:20:19;25.60;41.40
64468;DHT22;50853;46.836;16.820;2022-12-29T16:22:51;25.60;41.70
64468;DHT22;50853;46.836;16.820;2022-12-29T16:25:34;25.50;41.20
64468;DHT22;50853;46.836;16.820;2022-12-29T16:28:24;25.50;41.20
64468;DHT22;50853;46.836;16.820;2022-12-29T16:33:49;25.50;41.50
64468;DHT22;50853;46.836;16.820;2022-12-29T16:37:02;25.40;41.00
64468;DHT22;50853;46.836;16.820;2022-12-29T16:39:36;25.50;40.90
64468;DHT22;50853;46.836;16.820;2022-12-29T16:50:41;25.50;40.60
64468;DHT22;50853;46.836;16.820;2022-12-29T16:53:27;25.50;40.30
64468;DHT22;50853;46.836;16.820;2022-12-29T16:55:55;25.70;40.90
64468;DHT22;50853;46.836;16.820;2022-12-29T16:58:25;25.70;40.70
64468;DHT22;50853;46.836;16.820;2022-12-29T17:00:54;25.80;42.00
64468;DHT22;50853;46.836;16.820;2022-12-29T17:03:22;25.80;41.10
64468;DHT22;50853;46.836;16.820;2022-12-29T17:05:48;25.90;41.20
64468;DHT22;50853;46.836;16.820;2022-12-29T17:08:18;25.90;41.30
64468;DHT22;50853;46.836;16.820;2022-12-29T17:10:54;26.00;41.40
64468;DHT22;50853;46.836;16.820;2022-12-29T17:13:40;26.00;41.70
64468;DHT22;50853;46.836;16.820;2022-12-29T17:16:09;26.10;40.50
64468;DHT22;50853;46.836;16.820;2022-12-29T17:18:35;26.00;40.50
64468;DHT22;50853;46.836;16.820;2022-12-29T17:21:01;26.00;41.30
64468;DHT22;50853;46.836;16.820;2022-12-29T17:23:30;26.00;41.30
64468;DHT22;50853;46.836;16.820;2022-12-29T17:25:56;26.00;41.70
64468;DHT22;50853;46.836;16.820;2022-12-29T17:28:28;25.90;42.00
64468;DHT22;50853;46.836;16.820;2022-12-29T17:30:59;26.00;42.00
64468;DHT22;50853;46.836;16.820;2022-12-29T17:33:26;26.00;42.50
64468;DHT22;50853;46.836;16.820;2022-12-29T17:35:55;26.00;42.90
64468;DHT22;50853;46.836;16.820;2022-12-29T17:40:46;26.00;44.80
64468;DHT22;50853;46.836;16.820;2022-12-29T17:43:14;26.00;44.10
64468;DHT22;50853;46.836;16.820;2022-12-29T17:45:41;26.00;42.80
64468;DHT22;50853;46.836;16.820;2022-12-29T17:48:12;26.00;43.50
64468;DHT22;50853;46.836;16.820;2022-12-29T17:50:39;26.00;42.70
64468;DHT22;50853;46.836;16.820;2022-12-29T17:53:09;26.00;43.00
64468;DHT22;50853;46.836;16.820;2022-12-29T17:55:36;26.10;43.20
64468;DHT22;50853;46.836;16.820;2022-12-29T17:58:21;26.10;43.40
64468;DHT22;50853;46.836;16.820;2022-12-29T18:00:50;26.10;44.00
64468;DHT22;50853;46.836;16.820;2022-12-29T18:03:20;26.10;45.50
64468;DHT22;50853;46.836;16.820;2022-12-29T18:05:47;26.10;44.80
64468;DHT22;50853;46.836;16.820;2022-12-29T18:08:14;26.20;43.60
64468;DHT22;50853;46.836;16.820;2022-12-29T18:10:41;26.20;45.40
64468;DHT22;50853;46.836;16.820;2022-12-29T18:13:21;26.10;43.60
64468;DHT22;50853;46.836;16.820;2022-12-29T18:15:47;26.10;43.70
64468;DHT22;50853;46.836;16.820;2022-12-29T18:18:21;26.10;44.30
64468;DHT22;50853;46.836;16.820;2022-12-29T18:20:49;26.10;43.60
64468;DHT22;50853;46.836;16.820;2022-12-29T18:23:30;26.10;43.60
64468;DHT22;50853;46.836;16.820;2022-12-29T18:28:28;26.10;43.60
64468;DHT22;50853;46.836;16.820;2022-12-29T18:30:56;26.10;43.70
64468;DHT22;50853;46.836;16.820;2022-12-29T18:33:25;26.00;43.80
64468;DHT22;50853;46.836;16.820;2022-12-29T18:36:05;26.00;44.10
64468;DHT22;50853;46.836;16.820;2022-12-29T18:38:31;26.00;44.30
64468;DHT22;50853;46.836;16.820;2022-12-29T18:40:57;25.90;44.30
64468;DHT22;50853;46.836;16.820;2022-12-29T18:43:23;26.00;44.60
64468;DHT22;50853;46.836;16.820;2022-12-29T18:45:50;26.00;46.40
64468;DHT22;50853;46.836;16.820;2022-12-29T18:48:17;26.00;47.20
64468;DHT22;50853;46.836;16.820;2022-12-29T18:50:44;26.10;47.50
64468;DHT22;50853;46.836;16.820;2022-12-29T18:53:21;26.10;47.50
64468;DHT22;50853;46.836;16.820;2022-12-29T18:55:48;26.20;47.30
64468;DHT22;50853;46.836;16.820;2022-12-29T18:58:14;26.20;46.60
64468;DHT22;50853;46.836;16.820;2022-12-29T19:00:40;26.20;47.10
64468;DHT22;50853;46.836;16.820;2022-12-29T19:03:06;26.20;46.90
64468;DHT22;50853;46.836;16.820;2022-12-29T19:05:37;26.20;46.50
64468;DHT22;50853;46.836;16.820;2022-12-29T19:08:03;26.10;46.60
64468;DHT22;50853;46.836;16.820;2022-12-29T19:10:29;26.10;46.50
64468;DHT22;50853;46.836;16.820;2022-12-29T19:12:55;26.10;46.30
64468;DHT22;50853;46.836;16.820;2022-12-29T19:15:31;26.10;46.60
64468;DHT22;50853;46.836;16.820;2022-12-29T19:17:59;26.10;47.30
64468;DHT22;50853;46.836;16.820;2022-12-29T19:20:32;26.10;47.00
64468;DHT22;50853;46.836;16.820;2022-12-29T19:23:00;26.20;46.80
64468;DHT22;50853;46.836;16.820;2022-12-29T19:25:27;26.20;46.80
64468;DHT22;50853;46.836;16.820;2022-12-29T19:27:53;26.20;46.90
64468;DHT22;50853;46.836;16.820;2022-12-29T19:30:20;26.10;46.90
64468;DHT22;50853;46.836;16.820;2022-12-29T19:32:54;26.10;47.20
64468;DHT22;50853;46.836;16.820;2022-12-29T19:35:22;26.10;48.40
64468;DHT22;50853;46.836;16.820;2022-12-29T19:37:48;26.10;47.30
64468;DHT22;50853;46.836;16.820;2022-12-29T19:40:20;26.10;47.30
64468;DHT22;50853;46.836;16.820;2022-12-29T19:42:47;26.10;47.40
64468;DHT22;50853;46.836;16.820;2022-12-29T19:45:13;26.10;47.50
64468;DHT22;50853;46.836;16.820;2022-12-29T19:47:39;26.10;48.50
64468;DHT22;50853;46.836;16.820;2022-12-29T19:50:06;26.10;47.70
64468;DHT22;50853;46.836;16.820;2022-12-29T19:52:33;26.10;47.50
64468;DHT22;50853;46.836;16.820;2022-12-29T19:54:59;26.10;47.70
64468;DHT22;50853;46.836;16.820;2022-12-29T19:57:25;26.10;47.60
64468;DHT22;50853;46.836;16.820;2022-12-29T19:59:51;26.10;47.20
64468;DHT22;50853;46.836;16.820;2022-12-29T20:02:23;26.10;47.60
64468;DHT22;50853;46.836;16.820;2022-12-29T20:04:49;26.20;47.70
64468;DHT22;50853;46.836;16.820;2022-12-29T20:07:16;26.20;47.80
64468;DHT22;50853;46.836;16.820;2022-12-29T20:09:49;26.20;47.80
64468;DHT22;50853;46.836;16.820;2022-12-29T20:12:15;26.20;47.80
64468;DHT22;50853;46.836;16.820;2022-12-29T20:14:41;26.20;47.90
64468;DHT22;50853;46.836;16.820;2022-12-29T20:17:09;26.20;48.00
64468;DHT22;50853;46.836;16.820;2022-12-29T20:19:36;26.20;48.10
64468;DHT22;50853;46.836;16.820;2022-12-29T20:22:03;26.20;47.90
64468;DHT22;50853;46.836;16.820;2022-12-29T20:24:31;26.30;48.00
64468;DHT22;50853;46.836;16.820;2022-12-29T20:26:57;26.30;48.10
64468;DHT22;50853;46.836;16.820;2022-12-29T20:29:31;26.30;48.50
64468;DHT22;50853;46.836;16.820;2022-12-29T20:32:08;26.20;48.00
64468;DHT22;50853;46.836;16.820;2022-12-29T20:34:34;26.30;48.40
64468;DHT22;50853;46.836;16.820;2022-12-29T20:37:01;26.30;48.20
64468;DHT22;50853;46.836;16.820;2022-12-29T20:39:27;26.30;48.60
64468;DHT22;50853;46.836;16.820;2022-12-29T20:41:53;26.20;48.30
64468;DHT22;50853;46.836;16.820;2022-12-29T20:44:19;26.20;48.40
64468;DHT22;50853;46.836;16.820;2022-12-29T20:46:46;26.20;48.60
64468;DHT22;50853;46.836;16.820;2022-12-29T20:49:12;26.20;47.90
64468;DHT22;50853;46.836;16.820;2022-12-29T20:51:37;26.30;48.10
64468;DHT22;50853;46.836;16.820;2022-12-29T20:54:04;26.30;47.50
64468;DHT22;50853;46.836;16.820;2022-12-29T20:56:29;26.20;47.40
64468;DHT22;50853;46.836;16.820;2022-12-29T20:58:56;26.20;47.50
64468;DHT22;50853;46.836;16.820;2022-12-29T21:01:24;26.20;48.20
64468;DHT22;50853;46.836;16.820;2022-12-29T21:03:49;26.30;50.70
64468;DHT22;50853;46.836;16.820;2022-12-29T21:06:15;26.30;50.20
64468;DHT22;50853;46.836;16.820;2022-12-29T21:08:42;26.30;49.20
64468;DHT22;50853;46.836;16.820;2022-12-29T21:11:08;26.30;49.80
64468;DHT22;50853;46.836;16.820;2022-12-29T21:13:34;26.30;49.20
64468;DHT22;50853;46.836;16.820;2022-12-29T21:16:06;26.30;49.10
64468;DHT22;50853;46.836;16.820;2022-12-29T21:18:32;26.30;48.40
64468;DHT22;50853;46.836;16.820;2022-12-29T21:21:04;26.30;50.00
64468;DHT22;50853;46.836;16.820;2022-12-29T21:23:30;26.40;50.50
64468;DHT22;50853;46.836;16.820;2022-12-29T21:25:56;26.40;49.50
64468;DHT22;50853;46.836;16.820;2022-12-29T21:28:23;26.40;50.00
64468;DHT22;50853;46.836;16.820;2022-12-29T21:30:49;26.40;49.80
